sensor_id;sensor_type;location;lat;lon;timestamp;pressure;altitude;pressure_sealevel;temperature;humidity
65394;BME280;52002;49.760;6.512;2023-06-10T00:02:20;99628.42;;;17.74;58.83
65394;BME280;52002;49.760;6.512;2023-06-10T00:04:46;99629.73;;;17.74;58.91
65394;BME280;52002;49.760;6.512;2023-06-10T00:07:12;99632.30;;;17.72;59.00
65394;BME280;52002;49.760;6.512;2023-06-10T00:09:38;99637.13;;;17.69;59.14
65394;BME280;52002;49.760;6.512;2023-06-10T00:12:08;99638.14;;;17.67;59.15
65394;BME280;52002;49.760;6.512;2023-06-10T00:14:37;99634.38;;;17.65;59.27
65394;BME280;52002;49.760;6.512;2023-06-10T00:17:04;99633.35;;;17.61;59.25
65394;BME280;52002;49.760;6.512;2023-06-10T00:19:29;99632.91;;;17.54;59.52
65394;BME280;52002;49.760;6.512;2023-06-10T00:21:58;99632.96;;;17.48;59.68
65394;BME280;52002;49.760;6.512;2023-06-10T00:24:24;99635.14;;;17.42;59.85
65394;BME280;52002;49.760;6.512;2023-06-10T00:26:50;99633.46;;;17.39;59.90
65394;BME280;52002;49.760;6.512;2023-06-10T00:29:15;99634.92;;;17.36;60.00
65394;BME280;52002;49.760;6.512;2023-06-10T00:31:41;99636.80;;;17.31;60.08
65394;BME280;52002;49.760;6.512;2023-06-10T00:34:07;99641.20;;;17.31;60.24
65394;BME280;52002;49.760;6.512;2023-06-10T00:36:33;99634.14;;;17.31;60.26
65394;BME280;52002;49.760;6.512;2023-06-10T00:38:58;99637.61;;;17.32;60.43
65394;BME280;52002;49.760;6.512;2023-06-10T00:41:24;99637.17;;;17.31;60.38
65394;BME280;52002;49.760;6.512;2023-06-10T00:43:51;99636.24;;;17.30;60.45
65394;BME280;52002;49.760;6.512;2023-06-10T00:46:17;99636.48;;;17.29;60.36
65394;BME280;52002;49.760;6.512;2023-06-10T00:48:45;99630.66;;;17.28;60.51
65394;BME280;52002;49.760;6.512;2023-06-10T00:51:15;99635.69;;;17.29;60.50
65394;BME280;52002;49.760;6.512;2023-06-10T00:53:41;99635.65;;;17.29;60.68
65394;BME280;52002;49.760;6.512;2023-06-10T00:56:08;99636.63;;;17.30;60.51
65394;BME280;52002;49.760;6.512;2023-06-10T00:58:34;99636.25;;;17.30;60.61
65394;BME280;52002;49.760;6.512;2023-06-10T01:01:00;99634.85;;;17.28;60.67
65394;BME280;52002;49.760;6.512;2023-06-10T01:03:25;99632.96;;;17.25;60.76
65394;BME280;52002;49.760;6.512;2023-06-10T01:05:58;99637.61;;;17.22;60.70
65394;BME280;52002;49.760;6.512;2023-06-10T01:08:41;99639.40;;;17.19;60.87
65394;BME280;52002;49.760;6.512;2023-06-10T01:11:18;99637.56;;;17.15;60.96
65394;BME280;52002;49.760;6.512;2023-06-10T01:13:49;99636.56;;;17.11;60.98
65394;BME280;52002;49.760;6.512;2023-06-10T01:16:18;99637.59;;;17.10;60.98
65394;BME280;52002;49.760;6.512;2023-06-10T01:18:44;99641.55;;;17.04;60.99
65394;BME280;52002;49.760;6.512;2023-06-10T01:21:13;99642.41;;;17.03;61.18
65394;BME280;52002;49.760;6.512;2023-06-10T01:23:38;99641.27;;;16.99;61.28
65394;BME280;52002;49.760;6.512;2023-06-10T01:26:10;99643.77;;;16.95;61.42
65394;BME280;52002;49.760;6.512;2023-06-10T01:28:44;99650.04;;;16.90;61.45
65394;BME280;52002;49.760;6.512;2023-06-10T01:33:43;99648.98;;;16.76;61.69
65394;BME280;52002;49.760;6.512;2023-06-10T01:36:11;99649.36;;;16.67;61.98
65394;BME280;52002;49.760;6.512;2023-06-10T01:38:40;99648.27;;;16.62;62.15
65394;BME280;52002;49.760;6.512;2023-06-10T01:41:08;99652.30;;;16.59;62.36
65394;BME280;52002;49.760;6.512;2023-06-10T01:43:35;99654.63;;;16.56;62.54
65394;BME280;52002;49.760;6.512;2023-06-10T01:46:02;99660.08;;;16.54;62.65
65394;BME280;52002;49.760;6.512;2023-06-10T01:48:27;99659.82;;;16.53;62.76
65394;BME280;52002;49.760;6.512;2023-06-10T01:50:52;99657.30;;;16.52;62.88
65394;BME280;52002;49.760;6.512;2023-06-10T01:53:20;99661.56;;;16.46;62.84
65394;BME280;52002;49.760;6.512;2023-06-10T01:55:45;99661.54;;;16.45;63.02
65394;BME280;52002;49.760;6.512;2023-06-10T01:58:10;99660.90;;;16.38;63.09
65394;BME280;52002;49.760;6.512;2023-06-10T02:00:36;99662.84;;;16.32;63.25
65394;BME280;52002;49.760;6.512;2023-06-10T02:03:01;99660.34;;;16.29;63.41
65394;BME280;52002;49.760;6.512;2023-06-10T02:05:26;99662.15;;;16.26;63.50
65394;BME280;52002;49.760;6.512;2023-06-10T02:07:52;99662.63;;;16.30;63.64
65394;BME280;52002;49.760;6.512;2023-06-10T02:10:17;99663.91;;;16.32;63.56
65394;BME280;52002;49.760;6.512;2023-06-10T02:12:42;99663.17;;;16.34;63.65
65394;BME280;52002;49.760;6.512;2023-06-10T02:15:07;99667.02;;;16.36;63.78
65394;BME280;52002;49.760;6.512;2023-06-10T02:17:33;99666.77;;;16.39;63.71
65394;BME280;52002;49.760;6.512;2023-06-10T02:19:59;99672.96;;;16.41;63.73
65394;BME280;52002;49.760;6.512;2023-06-10T02:22:25;99673.46;;;16.41;63.68
65394;BME280;52002;49.760;6.512;2023-06-10T02:24:50;99675.34;;;16.36;63.63
65394;BME280;52002;49.760;6.512;2023-06-10T02:27:18;99677.58;;;16.31;63.75
65394;BME280;52002;49.760;6.512;2023-06-10T02:29:43;99676.15;;;16.29;63.82
65394;BME280;52002;49.760;6.512;2023-06-10T02:32:09;99678.55;;;16.27;63.88
65394;BME280;52002;49.760;6.512;2023-06-10T02:34:35;99680.42;;;16.23;64.03
65394;BME280;52002;49.760;6.512;2023-06-10T02:37:01;99683.05;;;16.21;64.15
65394;BME280;52002;49.760;6.512;2023-06-10T02:39:27;99685.83;;;16.18;64.01
65394;BME280;52002;49.760;6.512;2023-06-10T02:41:53;99683.58;;;16.13;64.02
65394;BME280;52002;49.760;6.512;2023-06-10T02:44:19;99683.55;;;16.07;64.18
65394;BME280;52002;49.760;6.512;2023-06-10T02:46:44;99682.99;;;16.03;64.35
65394;BME280;52002;49.760;6.512;2023-06-10T02:49:11;99681.77;;;16.01;64.52
65394;BME280;52002;49.760;6.512;2023-06-10T02:51:36;99680.57;;;16.04;64.62
65394;BME280;52002;49.760;6.512;2023-06-10T02:54:02;99684.48;;;16.08;64.62
65394;BME280;52002;49.760;6.512;2023-06-10T02:56:27;99684.45;;;16.13;64.79
65394;BME280;52002;49.760;6.512;2023-06-10T02:58:53;99687.02;;;16.18;64.67
65394;BME280;52002;49.760;6.512;2023-06-10T03:01:18;99688.12;;;16.22;64.66
65394;BME280;52002;49.760;6.512;2023-06-10T03:03:44;99691.36;;;16.23;64.58
65394;BME280;52002;49.760;6.512;2023-06-10T03:06:11;99694.11;;;16.24;64.59
65394;BME280;52002;49.760;6.512;2023-06-10T03:08:38;99695.02;;;16.26;64.70
65394;BME280;52002;49.760;6.512;2023-06-10T03:11:03;99695.17;;;16.28;64.63
65394;BME280;52002;49.760;6.512;2023-06-10T03:13:29;99695.89;;;16.29;64.56
65394;BME280;52002;49.760;6.512;2023-06-10T03:15:54;99694.73;;;16.27;64.51
65394;BME280;52002;49.760;6.512;2023-06-10T03:18:20;99699.05;;;16.25;64.60
65394;BME280;52002;49.760;6.512;2023-06-10T03:20:45;99696.42;;;16.23;64.52
65394;BME280;52002;49.760;6.512;2023-06-10T03:23:11;99696.20;;;16.19;64.60
65394;BME280;52002;49.760;6.512;2023-06-10T03:25:36;99697.71;;;16.18;64.66
65394;BME280;52002;49.760;6.512;2023-06-10T03:28:02;99699.08;;;16.17;64.75
65394;BME280;52002;49.760;6.512;2023-06-10T03:30:27;99699.15;;;16.15;64.71
65394;BME280;52002;49.760;6.512;2023-06-10T03:32:53;99705.91;;;16.16;64.82
65394;BME280;52002;49.760;6.512;2023-06-10T03:35:19;99707.44;;;16.19;64.89
65394;BME280;52002;49.760;6.512;2023-06-10T03:37:44;99711.70;;;16.23;64.70
65394;BME280;52002;49.760;6.512;2023-06-10T03:40:10;99716.67;;;16.22;64.62
65394;BME280;52002;49.760;6.512;2023-06-10T03:42:35;99714.66;;;16.23;64.73
65394;BME280;52002;49.760;6.512;2023-06-10T03:45:01;99715.11;;;16.23;64.74
65394;BME280;52002;49.760;6.512;2023-06-10T03:47:33;99715.89;;;16.22;64.74
65394;BME280;52002;49.760;6.512;2023-06-10T03:50:00;99718.14;;;16.23;64.55
65394;BME280;52002;49.760;6.512;2023-06-10T03:52:25;99722.06;;;16.22;64.65
65394;BME280;52002;49.760;6.512;2023-06-10T03:54:50;99719.95;;;16.24;64.65
65394;BME280;52002;49.760;6.512;2023-06-10T03:57:16;99722.04;;;16.27;64.57
65394;BME280;52002;49.760;6.512;2023-06-10T03:59:41;99724.63;;;16.26;64.52
65394;BME280;52002;49.760;6.512;2023-06-10T04:02:06;99727.50;;;16.26;64.69
65394;BME280;52002;49.760;6.512;2023-06-10T04:04:34;99727.71;;;16.26;64.46
65394;BME280;52002;49.760;6.512;2023-06-10T04:07:00;99731.81;;;16.26;64.54
65394;BME280;52002;49.760;6.512;2023-06-10T04:09:25;99737.34;;;16.25;64.46
65394;BME280;52002;49.760;6.512;2023-06-10T04:11:50;99737.83;;;16.20;64.59
65394;BME280;52002;49.760;6.512;2023-06-10T04:14:16;99733.86;;;16.21;64.63
65394;BME280;52002;49.760;6.512;2023-06-10T04:16:42;99736.45;;;16.23;64.68
65394;BME280;52002;49.760;6.512;2023-06-10T04:19:08;99734.03;;;16.27;64.54
65394;BME280;52002;49.760;6.512;2023-06-10T04:21:33;99735.89;;;16.31;64.67
65394;BME280;52002;49.760;6.512;2023-06-10T04:23:58;99735.52;;;16.39;64.57
65394;BME280;52002;49.760;6.512;2023-06-10T04:26:24;99737.98;;;16.45;64.56
65394;BME280;52002;49.760;6.512;2023-06-10T04:28:51;99737.52;;;16.52;64.38
65394;BME280;52002;49.760;6.512;2023-06-10T04:31:16;99736.88;;;16.60;64.26
65394;BME280;52002;49.760;6.512;2023-06-10T04:33:41;99741.86;;;16.65;64.21
65394;BME280;52002;49.760;6.512;2023-06-10T04:36:07;99743.02;;;16.67;64.10
65394;BME280;52002;49.760;6.512;2023-06-10T04:38:32;99745.35;;;16.70;64.11
65394;BME280;52002;49.760;6.512;2023-06-10T04:40:58;99745.92;;;16.76;63.95
65394;BME280;52002;49.760;6.512;2023-06-10T04:43:23;99744.55;;;16.75;63.76
65394;BME280;52002;49.760;6.512;2023-06-10T04:45:49;99744.33;;;16.71;63.68
65394;BME280;52002;49.760;6.512;2023-06-10T04:48:14;99746.02;;;16.67;63.79
65394;BME280;52002;49.760;6.512;2023-06-10T04:50:40;99745.50;;;16.64;63.92
65394;BME280;52002;49.760;6.512;2023-06-10T04:53:05;99746.17;;;16.65;64.04
65394;BME280;52002;49.760;6.512;2023-06-10T04:55:31;99744.04;;;16.66;64.08
65394;BME280;52002;49.760;6.512;2023-06-10T04:57:58;99749.37;;;16.73;63.98
65394;BME280;52002;49.760;6.512;2023-06-10T05:00:24;99748.23;;;16.82;63.93
65394;BME280;52002;49.760;6.512;2023-06-10T05:02:49;99750.39;;;16.93;63.76
65394;BME280;52002;49.760;6.512;2023-06-10T05:05:18;99749.59;;;17.04;63.63
65394;BME280;52002;49.760;6.512;2023-06-10T05:07:44;99751.99;;;17.14;63.39
65394;BME280;52002;49.760;6.512;2023-06-10T05:10:09;99750.30;;;17.20;63.18
65394;BME280;52002;49.760;6.512;2023-06-10T05:12:35;99751.77;;;17.28;62.98
65394;BME280;52002;49.760;6.512;2023-06-10T05:15:00;99749.67;;;17.35;62.96
65394;BME280;52002;49.760;6.512;2023-06-10T05:17:26;99747.95;;;17.43;62.74
65394;BME280;52002;49.760;6.512;2023-06-10T05:19:52;99749.39;;;17.60;62.57
65394;BME280;52002;49.760;6.512;2023-06-10T05:22:18;99745.58;;;18.74;60.69
65394;BME280;52002;49.760;6.512;2023-06-10T05:24:44;99747.55;;;21.30;57.30
65394;BME280;52002;49.760;6.512;2023-06-10T05:27:10;99746.79;;;23.79;53.48
65394;BME280;52002;49.760;6.512;2023-06-10T05:29:35;99755.70;;;25.99;49.73
65394;BME280;52002;49.760;6.512;2023-06-10T05:32:01;99753.25;;;27.91;46.14
65394;BME280;52002;49.760;6.512;2023-06-10T05:34:31;99757.97;;;29.57;43.13
65394;BME280;52002;49.760;6.512;2023-06-10T05:36:57;99758.52;;;31.19;40.36
65394;BME280;52002;49.760;6.512;2023-06-10T05:39:23;99765.73;;;32.80;38.16
65394;BME280;52002;49.760;6.512;2023-06-10T05:41:48;99769.42;;;34.14;35.37
65394;BME280;52002;49.760;6.512;2023-06-10T05:44:13;99771.38;;;35.22;33.27
65394;BME280;52002;49.760;6.512;2023-06-10T05:46:39;99769.90;;;36.32;31.73
65394;BME280;52002;49.760;6.512;2023-06-10T05:49:05;99768.89;;;37.24;29.87
65394;BME280;52002;49.760;6.512;2023-06-10T05:51:30;99768.52;;;38.04;28.42
65394;BME280;52002;49.760;6.512;2023-06-10T05:53:55;99771.69;;;38.68;27.03
65394;BME280;52002;49.760;6.512;2023-06-10T05:56:21;99769.86;;;39.47;26.14
65394;BME280;52002;49.760;6.512;2023-06-10T05:58:51;99765.43;;;40.39;25.33
65394;BME280;52002;49.760;6.512;2023-06-10T06:01:16;99767.65;;;41.30;24.34
65394;BME280;52002;49.760;6.512;2023-06-10T06:03:42;99765.13;;;42.04;23.29
65394;BME280;52002;49.760;6.512;2023-06-10T06:06:09;99762.25;;;42.89;22.48
65394;BME280;52002;49.760;6.512;2023-06-10T06:08:35;99764.42;;;43.67;21.65
65394;BME280;52002;49.760;6.512;2023-06-10T06:11:00;99768.22;;;44.37;20.92
65394;BME280;52002;49.760;6.512;2023-06-10T06:13:25;99764.86;;;45.11;20.08
65394;BME280;52002;49.760;6.512;2023-06-10T06:15:51;99762.38;;;45.96;19.24
65394;BME280;52002;49.760;6.512;2023-06-10T06:18:16;99760.77;;;46.68;18.34
65394;BME280;52002;49.760;6.512;2023-06-10T06:20:43;99760.30;;;47.39;17.71
65394;BME280;52002;49.760;6.512;2023-06-10T06:23:09;99763.65;;;48.14;17.21
65394;BME280;52002;49.760;6.512;2023-06-10T06:25:36;99759.82;;;48.79;16.73
65394;BME280;52002;49.760;6.512;2023-06-10T06:28:05;99752.09;;;49.34;16.11
65394;BME280;52002;49.760;6.512;2023-06-10T06:30:31;99747.84;;;49.74;15.67
65394;BME280;52002;49.760;6.512;2023-06-10T06:32:57;99747.20;;;50.24;15.33
65394;BME280;52002;49.760;6.512;2023-06-10T06:35:22;99746.67;;;50.77;14.72
65394;BME280;52002;49.760;6.512;2023-06-10T06:37:47;99750.45;;;51.09;14.19
65394;BME280;52002;49.760;6.512;2023-06-10T06:40:13;99750.83;;;51.43;13.91
65394;BME280;52002;49.760;6.512;2023-06-10T06:42:39;99752.65;;;51.89;13.61
65394;BME280;52002;49.760;6.512;2023-06-10T06:45:05;99755.38;;;52.33;13.36
65394;BME280;52002;49.760;6.512;2023-06-10T06:47:30;99754.42;;;52.69;13.00
65394;BME280;52002;49.760;6.512;2023-06-10T06:49:56;99749.13;;;53.07;12.64
65394;BME280;52002;49.760;6.512;2023-06-10T06:52:21;99746.89;;;53.35;12.30
65394;BME280;52002;49.760;6.512;2023-06-10T06:54:47;99747.48;;;53.35;12.10
65394;BME280;52002;49.760;6.512;2023-06-10T06:57:13;99745.70;;;53.21;12.03
65394;BME280;52002;49.760;6.512;2023-06-10T06:59:38;99748.48;;;53.19;12.03
65394;BME280;52002;49.760;6.512;2023-06-10T07:02:03;99747.09;;;53.38;11.94
65394;BME280;52002;49.760;6.512;2023-06-10T07:04:29;99742.19;;;53.34;11.92
65394;BME280;52002;49.760;6.512;2023-06-10T07:06:55;99736.75;;;53.73;11.74
65394;BME280;52002;49.760;6.512;2023-06-10T07:09:20;99734.57;;;54.28;11.37
65394;BME280;52002;49.760;6.512;2023-06-10T07:11:46;99739.18;;;54.49;11.21
65394;BME280;52002;49.760;6.512;2023-06-10T07:14:11;99735.30;;;54.84;11.08
65394;BME280;52002;49.760;6.512;2023-06-10T07:16:36;99734.30;;;55.21;10.74
65394;BME280;52002;49.760;6.512;2023-06-10T07:19:02;99738.39;;;55.64;10.55
65394;BME280;52002;49.760;6.512;2023-06-10T07:21:27;99734.23;;;56.04;10.51
65394;BME280;52002;49.760;6.512;2023-06-10T07:23:54;99737.94;;;56.50;10.35
65394;BME280;52002;49.760;6.512;2023-06-10T07:26:21;99734.16;;;56.68;10.18
65394;BME280;52002;49.760;6.512;2023-06-10T07:28:47;99738.30;;;57.13;9.98
65394;BME280;52002;49.760;6.512;2023-06-10T07:31:12;99736.86;;;57.72;9.98
65394;BME280;52002;49.760;6.512;2023-06-10T07:33:37;99732.95;;;58.21;9.56
65394;BME280;52002;49.760;6.512;2023-06-10T07:36:05;99729.71;;;58.64;9.46
65394;BME280;52002;49.760;6.512;2023-06-10T07:38:31;99730.25;;;59.08;9.29
65394;BME280;52002;49.760;6.512;2023-06-10T07:40:56;99733.30;;;59.55;9.00
65394;BME280;52002;49.760;6.512;2023-06-10T07:43:24;99728.08;;;59.91;8.48
65394;BME280;52002;49.760;6.512;2023-06-10T07:45:49;99729.52;;;59.93;8.23
65394;BME280;52002;49.760;6.512;2023-06-10T07:48:15;99727.73;;;59.82;8.60
65394;BME280;52002;49.760;6.512;2023-06-10T07:50:40;99725.63;;;59.85;8.37
65394;BME280;52002;49.760;6.512;2023-06-10T07:53:06;99726.23;;;59.95;8.91
65394;BME280;52002;49.760;6.512;2023-06-10T07:55:31;99727.02;;;59.95;8.94
65394;BME280;52002;49.760;6.512;2023-06-10T07:57:57;99726.10;;;59.56;8.01
65394;BME280;52002;49.760;6.512;2023-06-10T08:00:22;99726.98;;;59.24;8.28
65394;BME280;52002;49.760;6.512;2023-06-10T08:02:48;99729.30;;;59.04;8.47
65394;BME280;52002;49.760;6.512;2023-06-10T08:05:13;99724.83;;;58.70;8.36
65394;BME280;52002;49.760;6.512;2023-06-10T08:07:39;99719.85;;;58.33;8.35
65394;BME280;52002;49.760;6.512;2023-06-10T08:10:06;99723.52;;;58.09;8.93
65394;BME280;52002;49.760;6.512;2023-06-10T08:12:35;99721.39;;;58.09;8.66
65394;BME280;52002;49.760;6.512;2023-06-10T08:15:01;99719.52;;;58.03;8.41
65394;BME280;52002;49.760;6.512;2023-06-10T08:17:28;99722.39;;;57.65;8.57
65394;BME280;52002;49.760;6.512;2023-06-10T08:19:53;99721.42;;;57.29;8.39
65394;BME280;52002;49.760;6.512;2023-06-10T08:22:19;99719.10;;;56.94;8.66
65394;BME280;52002;49.760;6.512;2023-06-10T08:24:44;99718.08;;;56.80;8.74
65394;BME280;52002;49.760;6.512;2023-06-10T08:27:09;99712.70;;;56.61;8.72
65394;BME280;52002;49.760;6.512;2023-06-10T08:29:35;99707.98;;;56.22;8.86
65394;BME280;52002;49.760;6.512;2023-06-10T08:32:01;99706.35;;;55.83;8.96
65394;BME280;52002;49.760;6.512;2023-06-10T08:34:26;99705.42;;;55.60;9.06
65394;BME280;52002;49.760;6.512;2023-06-10T08:36:51;99697.17;;;55.08;8.77
65394;BME280;52002;49.760;6.512;2023-06-10T08:39:21;99695.92;;;54.47;9.45
65394;BME280;52002;49.760;6.512;2023-06-10T08:42:43;99696.29;;;54.25;9.27
65394;BME280;52002;49.760;6.512;2023-06-10T08:45:00;99687.61;;;53.48;9.45
65394;BME280;52002;49.760;6.512;2023-06-10T08:47:29;99688.96;;;52.97;9.77
65394;BME280;52002;49.760;6.512;2023-06-10T08:49:57;99681.94;;;52.68;9.93
65394;BME280;52002;49.760;6.512;2023-06-10T08:52:29;99683.60;;;52.13;10.12
65394;BME280;52002;49.760;6.512;2023-06-10T08:55:01;99676.02;;;51.34;10.73
65394;BME280;52002;49.760;6.512;2023-06-10T08:57:28;99674.86;;;50.31;10.95
65394;BME280;52002;49.760;6.512;2023-06-10T08:59:56;99667.42;;;47.96;11.99
65394;BME280;52002;49.760;6.512;2023-06-10T09:02:23;99661.80;;;45.76;13.33
65394;BME280;52002;49.760;6.512;2023-06-10T09:04:49;99663.59;;;43.70;14.42
65394;BME280;52002;49.760;6.512;2023-06-10T09:07:15;99664.10;;;42.06;15.74
65394;BME280;52002;49.760;6.512;2023-06-10T09:09:42;99667.54;;;40.67;16.89
65394;BME280;52002;49.760;6.512;2023-06-10T09:12:08;99665.13;;;39.35;17.96
65394;BME280;52002;49.760;6.512;2023-06-10T09:14:34;99672.52;;;38.32;18.89
65394;BME280;52002;49.760;6.512;2023-06-10T09:17:01;99668.64;;;37.30;19.54
65394;BME280;52002;49.760;6.512;2023-06-10T09:19:27;99663.34;;;36.40;20.17
65394;BME280;52002;49.760;6.512;2023-06-10T09:21:53;99662.11;;;35.68;21.46
65394;BME280;52002;49.760;6.512;2023-06-10T09:24:22;99665.20;;;34.99;22.19
65394;BME280;52002;49.760;6.512;2023-06-10T09:26:47;99671.27;;;34.31;22.89
65394;BME280;52002;49.760;6.512;2023-06-10T09:29:13;99672.38;;;33.75;23.26
65394;BME280;52002;49.760;6.512;2023-06-10T09:31:39;99666.96;;;33.27;23.94
65394;BME280;52002;49.760;6.512;2023-06-10T09:34:14;99662.83;;;32.73;24.37
65394;BME280;52002;49.760;6.512;2023-06-10T09:36:41;99672.73;;;32.30;25.02
65394;BME280;52002;49.760;6.512;2023-06-10T09:39:17;99672.86;;;31.93;25.34
65394;BME280;52002;49.760;6.512;2023-06-10T09:41:43;99672.93;;;31.63;25.66
65394;BME280;52002;49.760;6.512;2023-06-10T09:44:14;99672.98;;;31.35;26.02
65394;BME280;52002;49.760;6.512;2023-06-10T09:46:40;99666.69;;;31.04;26.37
65394;BME280;52002;49.760;6.512;2023-06-10T09:49:06;99668.67;;;30.86;27.03
65394;BME280;52002;49.760;6.512;2023-06-10T09:51:32;99667.89;;;30.77;27.17
65394;BME280;52002;49.760;6.512;2023-06-10T09:53:58;99671.10;;;30.70;27.10
65394;BME280;52002;49.760;6.512;2023-06-10T09:56:35;99670.99;;;30.69;27.16
65394;BME280;52002;49.760;6.512;2023-06-10T09:59:01;99668.57;;;30.66;26.98
65394;BME280;52002;49.760;6.512;2023-06-10T10:01:27;99667.60;;;30.58;27.09
65394;BME280;52002;49.760;6.512;2023-06-10T10:03:53;99666.10;;;30.50;27.22
65394;BME280;52002;49.760;6.512;2023-06-10T10:06:19;99664.23;;;30.42;26.72
65394;BME280;52002;49.760;6.512;2023-06-10T10:08:47;99666.89;;;30.34;26.74
65394;BME280;52002;49.760;6.512;2023-06-10T10:11:14;99672.95;;;30.26;27.06
65394;BME280;52002;49.760;6.512;2023-06-10T10:13:41;99672.91;;;30.21;27.22
65394;BME280;52002;49.760;6.512;2023-06-10T10:16:16;99668.55;;;30.22;26.81
65394;BME280;52002;49.760;6.512;2023-06-10T10:18:46;99657.05;;;30.20;26.90
65394;BME280;52002;49.760;6.512;2023-06-10T10:21:15;99662.39;;;30.21;27.06
65394;BME280;52002;49.760;6.512;2023-06-10T10:24:12;99660.86;;;30.21;27.35
65394;BME280;52002;49.760;6.512;2023-06-10T10:26:35;99665.08;;;30.24;27.50
65394;BME280;52002;49.760;6.512;2023-06-10T10:29:20;99663.20;;;30.31;27.66
65394;BME280;52002;49.760;6.512;2023-06-10T10:31:50;99671.75;;;30.30;27.37
65394;BME280;52002;49.760;6.512;2023-06-10T10:34:37;99660.67;;;30.29;27.51
65394;BME280;52002;49.760;6.512;2023-06-10T10:37:07;99650.41;;;30.42;27.61
65394;BME280;52002;49.760;6.512;2023-06-10T10:39:34;99652.94;;;30.46;27.52
65394;BME280;52002;49.760;6.512;2023-06-10T10:42:00;99655.30;;;30.44;27.53
65394;BME280;52002;49.760;6.512;2023-06-10T10:44:28;99654.01;;;30.37;27.72
65394;BME280;52002;49.760;6.512;2023-06-10T10:46:54;99658.36;;;30.38;27.51
65394;BME280;52002;49.760;6.512;2023-06-10T10:49:22;99653.23;;;30.38;27.09
65394;BME280;52002;49.760;6.512;2023-06-10T10:51:59;99655.36;;;30.40;27.23
65394;BME280;52002;49.760;6.512;2023-06-10T10:54:32;99662.64;;;30.44;27.20
65394;BME280;52002;49.760;6.512;2023-06-10T10:57:18;99656.78;;;30.49;26.89
65394;BME280;52002;49.760;6.512;2023-06-10T11:02:36;99649.52;;;30.44;25.78
65394;BME280;52002;49.760;6.512;2023-06-10T11:05:05;99653.55;;;30.48;25.50
65394;BME280;52002;49.760;6.512;2023-06-10T11:07:31;99647.04;;;30.46;25.70
65394;BME280;52002;49.760;6.512;2023-06-10T11:10:15;99639.77;;;30.50;25.13
65394;BME280;52002;49.760;6.512;2023-06-10T11:12:53;99643.13;;;30.51;24.58
65394;BME280;52002;49.760;6.512;2023-06-10T11:15:27;99644.02;;;30.47;25.05
65394;BME280;52002;49.760;6.512;2023-06-10T11:18:13;99643.98;;;30.35;24.76
65394;BME280;52002;49.760;6.512;2023-06-10T11:20:54;99637.16;;;30.29;24.71
65394;BME280;52002;49.760;6.512;2023-06-10T11:29:00;99640.25;;;30.14;25.47
65394;BME280;52002;49.760;6.512;2023-06-10T11:31:32;99636.96;;;30.06;25.45
65394;BME280;52002;49.760;6.512;2023-06-10T11:36:25;99637.63;;;29.98;25.10
65394;BME280;52002;49.760;6.512;2023-06-10T11:39:00;99638.38;;;29.95;25.17
65394;BME280;52002;49.760;6.512;2023-06-10T11:41:26;99635.99;;;29.92;25.02
65394;BME280;52002;49.760;6.512;2023-06-10T11:43:53;99635.06;;;29.89;25.29
65394;BME280;52002;49.760;6.512;2023-06-10T11:46:21;99635.00;;;29.86;25.14
65394;BME280;52002;49.760;6.512;2023-06-10T11:48:53;99634.84;;;29.85;25.22
65394;BME280;52002;49.760;6.512;2023-06-10T11:51:20;99642.81;;;29.84;25.10
65394;BME280;52002;49.760;6.512;2023-06-10T11:53:49;99650.23;;;29.81;24.87
65394;BME280;52002;49.760;6.512;2023-06-10T11:56:26;99636.81;;;29.79;25.08
65394;BME280;52002;49.760;6.512;2023-06-10T11:58:56;99633.84;;;29.81;25.17
65394;BME280;52002;49.760;6.512;2023-06-10T12:01:24;99637.42;;;29.85;25.35
65394;BME280;52002;49.760;6.512;2023-06-10T12:03:57;99640.06;;;29.83;24.88
65394;BME280;52002;49.760;6.512;2023-06-10T12:06:23;99637.20;;;29.77;24.77
65394;BME280;52002;49.760;6.512;2023-06-10T12:08:49;99635.21;;;29.74;24.36
65394;BME280;52002;49.760;6.512;2023-06-10T12:11:14;99638.95;;;29.75;24.16
65394;BME280;52002;49.760;6.512;2023-06-10T12:13:46;99635.86;;;29.74;23.26
65394;BME280;52002;49.760;6.512;2023-06-10T12:16:15;99625.86;;;29.69;23.52
65394;BME280;52002;49.760;6.512;2023-06-10T12:18:43;99634.23;;;29.71;23.85
65394;BME280;52002;49.760;6.512;2023-06-10T12:21:20;99628.54;;;29.72;23.88
65394;BME280;52002;49.760;6.512;2023-06-10T12:24:08;99626.55;;;29.73;24.06
65394;BME280;52002;49.760;6.512;2023-06-10T12:29:23;99628.23;;;29.78;23.65
65394;BME280;52002;49.760;6.512;2023-06-10T12:34:34;99623.25;;;29.98;24.27
65394;BME280;52002;49.760;6.512;2023-06-10T12:37:01;99614.16;;;30.11;24.81
65394;BME280;52002;49.760;6.512;2023-06-10T12:39:28;99610.36;;;30.26;24.36
65394;BME280;52002;49.760;6.512;2023-06-10T12:41:54;99601.23;;;30.39;24.40
65394;BME280;52002;49.760;6.512;2023-06-10T12:44:40;99607.05;;;30.49;24.35
65394;BME280;52002;49.760;6.512;2023-06-10T12:47:10;99612.06;;;30.50;24.15
65394;BME280;52002;49.760;6.512;2023-06-10T12:49:37;99618.08;;;30.41;23.93
65394;BME280;52002;49.760;6.512;2023-06-10T12:52:03;99605.80;;;30.41;23.65
65394;BME280;52002;49.760;6.512;2023-06-10T12:54:28;99608.38;;;30.46;23.80
65394;BME280;52002;49.760;6.512;2023-06-10T12:56:54;99606.95;;;30.50;24.31
65394;BME280;52002;49.760;6.512;2023-06-10T12:59:19;99618.18;;;30.53;24.15
65394;BME280;52002;49.760;6.512;2023-06-10T13:01:53;99608.02;;;30.32;23.99
65394;BME280;52002;49.760;6.512;2023-06-10T13:04:19;99607.01;;;30.16;24.05
65394;BME280;52002;49.760;6.512;2023-06-10T13:06:45;99610.20;;;30.10;24.25
65394;BME280;52002;49.760;6.512;2023-06-10T13:09:12;99605.36;;;29.99;24.44
65394;BME280;52002;49.760;6.512;2023-06-10T13:11:38;99607.16;;;29.82;24.40
65394;BME280;52002;49.760;6.512;2023-06-10T13:14:04;99611.73;;;29.65;24.29
65394;BME280;52002;49.760;6.512;2023-06-10T13:16:31;99610.79;;;29.62;24.00
65394;BME280;52002;49.760;6.512;2023-06-10T13:18:57;99603.41;;;29.65;24.10
65394;BME280;52002;49.760;6.512;2023-06-10T13:21:22;99596.98;;;29.76;24.10
65394;BME280;52002;49.760;6.512;2023-06-10T13:23:48;99593.45;;;29.89;24.11